イスタンブル の空港の天気 - METARとTAF

アタテュルク国際空港(イスタンブル) ( LTBA / IST ) - トルコ イスタンブル
飛行場実況気象(Metar)
観測時間08/14 07:50 EET (08/14 04:50 UTC)
風向・風速北東 5m/s
視程10km以上
天気現象
なし
気温24℃
湿度69%
気圧1015hPa
METARLTBA 140450Z 05009KT 020V080 CAVOK 24/18 Q1015 NOSIG RMK RWY17L 04010KT RWY05 06008KT RWY23 06008KT 020V100
過去の天気等 Google飛行場航空写真 Wunderground天気予報

過去48時間のMETAR

飛行場予報(TAF)
発表時間: 8/14 01:40 EET (8/13 22:40 UTC)
予報対象時間: 14日3時 EET ~ 15日9時 EET
風向・風速東北東 5m/s
視程10km以上
少しの雲 雲底高度 670m
14日9時 EET ~ 14日12時 EET に徐々に
視程10km以上
なし
14日18時 EET ~ 14日22時 EET に一時的に
風向・風速北東 8m/s 瞬間風速 13m/s
15日5時 EET ~ 15日9時 EET に一時的に
少しの雲 雲底高度 760m
TAF LTBA 132240Z 1400/1506 06010KT 9999 FEW022
BECMG 1406/1409 CAVOK
TEMPO 1415/1419 05015G25KT
TEMPO 1502/1506 FEW025